createdAt,value
2022-10-29T00:01:20.484Z,69.20
2022-10-29T00:03:49.510Z,69.10
2022-10-29T00:06:19.832Z,69.10
2022-10-29T00:08:48.785Z,69.00
2022-10-29T00:11:19.656Z,69.00
2022-10-29T00:13:50.330Z,69.10
2022-10-29T00:16:23.067Z,69.10
2022-10-29T00:18:52.099Z,69.30
2022-10-29T00:21:23.987Z,69.30
2022-10-29T00:23:53.602Z,69.50
2022-10-29T00:26:23.290Z,69.70
2022-10-29T00:28:53.769Z,69.70
2022-10-29T00:31:24.482Z,69.70
2022-10-29T00:33:55.519Z,69.60
2022-10-29T00:36:28.025Z,69.70
2022-10-29T00:38:57.913Z,69.60
2022-10-29T00:41:29.261Z,69.60
2022-10-29T00:44:25.938Z,69.70
2022-10-29T00:47:02.640Z,70.50
2022-10-29T00:49:34.086Z,69.50
2022-10-29T00:52:07.312Z,69.60
2022-10-29T00:54:39.793Z,70.40
2022-10-29T00:57:13.422Z,69.70
2022-10-29T00:59:43.946Z,69.80
2022-10-29T01:02:13.031Z,69.90
2022-10-29T01:04:43.225Z,69.80
2022-10-29T01:07:13.647Z,69.90
2022-10-29T01:09:43.182Z,70.00
2022-10-29T01:12:37.853Z,70.00
2022-10-29T01:15:14.848Z,70.10
2022-10-29T01:17:58.925Z,70.00
2022-10-29T01:21:03.072Z,70.20
2022-10-29T01:24:04.573Z,70.30
2022-10-29T01:27:00.549Z,70.20
2022-10-29T01:29:45.797Z,70.30
2022-10-29T01:32:19.733Z,70.40
2022-10-29T01:34:57.885Z,70.50
2022-10-29T01:37:33.561Z,70.60
2022-10-29T01:40:08.446Z,70.60
2022-10-29T01:42:39.765Z,70.60
2022-10-29T01:45:14.377Z,70.60
2022-10-29T01:47:48.390Z,70.60
2022-10-29T01:50:21.492Z,70.70
2022-10-29T01:52:51.708Z,70.70
2022-10-29T01:55:22.005Z,70.80
2022-10-29T01:57:50.827Z,70.90
2022-10-29T02:00:21.122Z,71.00
2022-10-29T02:03:02.010Z,70.90
2022-10-29T02:05:35.586Z,71.00
2022-10-29T02:08:14.908Z,71.00
2022-10-29T02:10:52.116Z,71.10
2022-10-29T02:13:25.630Z,71.00
2022-10-29T02:15:57.606Z,71.00
2022-10-29T02:18:27.929Z,71.00
2022-10-29T02:20:56.871Z,71.00
2022-10-29T02:23:25.738Z,70.80
2022-10-29T02:25:54.875Z,71.00
2022-10-29T02:28:24.124Z,70.80
2022-10-29T02:30:53.028Z,70.80
2022-10-29T02:33:22.272Z,70.80
2022-10-29T02:35:52.485Z,70.70
2022-10-29T02:38:21.735Z,70.70
2022-10-29T02:40:50.826Z,70.50
2022-10-29T02:46:12.365Z,70.40
2022-10-29T02:48:41.232Z,70.40
2022-10-29T02:51:11.773Z,70.50
2022-10-29T02:53:41.546Z,70.40
2022-10-29T02:56:11.305Z,70.40
2022-10-29T02:58:40.695Z,70.50
2022-10-29T03:01:09.986Z,70.60
2022-10-29T03:03:39.079Z,70.60
2022-10-29T03:06:14.950Z,70.60
2022-10-29T03:08:44.027Z,70.70
2022-10-29T03:11:13.777Z,70.70
2022-10-29T03:13:42.748Z,70.70
2022-10-29T03:16:11.797Z,70.70
2022-10-29T03:18:40.826Z,70.70
2022-10-29T03:21:10.074Z,70.70
2022-10-29T03:23:40.267Z,70.70
2022-10-29T03:26:10.622Z,70.70
2022-10-29T03:28:39.667Z,70.70
2022-10-29T03:31:08.635Z,70.80
2022-10-29T03:33:37.913Z,70.90
2022-10-29T03:36:08.435Z,70.80
2022-10-29T03:38:37.247Z,70.80
2022-10-29T03:41:10.323Z,70.90
2022-10-29T03:43:39.874Z,70.80
2022-10-29T03:46:08.672Z,70.80
2022-10-29T03:48:38.302Z,70.80
2022-10-29T03:51:07.949Z,70.80
2022-10-29T03:53:37.579Z,70.80
2022-10-29T03:56:08.093Z,70.70
2022-10-29T03:58:36.848Z,70.80
2022-10-29T04:01:08.155Z,71.10
2022-10-29T04:03:39.162Z,70.90
2022-10-29T04:06:11.598Z,70.90
2022-10-29T04:08:41.047Z,71.00
2022-10-29T04:11:12.760Z,71.00
2022-10-29T04:13:41.917Z,71.00
2022-10-29T04:16:10.663Z,70.90
2022-10-29T04:18:39.728Z,70.90
2022-10-29T04:29:37.613Z,70.80
2022-10-29T04:32:06.372Z,70.70
2022-10-29T04:34:35.490Z,70.80
2022-10-29T04:37:04.282Z,70.90
2022-10-29T04:39:33.125Z,70.80
2022-10-29T04:42:03.563Z,70.80
2022-10-29T04:44:32.555Z,70.80
2022-10-29T04:47:02.821Z,70.70
2022-10-29T04:49:31.868Z,70.80
2022-10-29T04:52:00.597Z,70.80
2022-10-29T04:54:29.732Z,70.90
2022-10-29T04:56:58.740Z,70.80
2022-10-29T04:59:29.239Z,70.80
2022-10-29T05:01:58.154Z,71.00
2022-10-29T05:04:29.476Z,70.90
2022-10-29T05:06:58.482Z,70.90
2022-10-29T05:09:27.505Z,70.90
2022-10-29T05:11:56.398Z,71.00
2022-10-29T05:14:25.286Z,71.00
2022-10-29T05:16:55.549Z,71.00
2022-10-29T05:19:25.038Z,71.00
2022-10-29T05:21:54.044Z,71.00
2022-10-29T05:24:23.120Z,71.10
2022-10-29T05:26:52.222Z,71.10
2022-10-29T05:29:21.352Z,71.30
2022-10-29T05:31:50.378Z,71.20
2022-10-29T05:34:21.484Z,71.30
2022-10-29T05:36:50.499Z,71.30
2022-10-29T05:39:19.453Z,71.30
2022-10-29T05:41:48.536Z,71.40
2022-10-29T05:44:17.376Z,71.50
2022-10-29T05:46:49.680Z,71.40
2022-10-29T05:49:19.983Z,71.40
2022-10-29T05:51:48.980Z,71.50
2022-10-29T05:54:18.031Z,71.50
2022-10-29T05:56:47.074Z,71.40
2022-10-29T05:59:15.784Z,72.20
2022-10-29T06:01:44.856Z,71.30
2022-10-29T06:04:13.788Z,71.30
2022-10-29T06:06:44.131Z,71.30
2022-10-29T06:09:12.979Z,71.30
2022-10-29T06:11:42.030Z,71.30
2022-10-29T06:14:11.119Z,71.30
2022-10-29T06:16:40.252Z,71.30
2022-10-29T06:19:09.285Z,71.30
2022-10-29T06:21:38.510Z,71.30
2022-10-29T06:24:10.585Z,71.30
2022-10-29T06:26:39.557Z,71.30
2022-10-29T06:29:08.962Z,71.40
2022-10-29T06:31:37.920Z,71.50
2022-10-29T06:34:06.759Z,71.50
2022-10-29T06:36:35.573Z,71.70
2022-10-29T06:39:04.481Z,71.70
2022-10-29T06:41:35.056Z,71.70
2022-10-29T06:44:04.558Z,71.70
2022-10-29T06:46:34.157Z,71.70
2022-10-29T06:49:03.284Z,71.70
2022-10-29T06:51:32.277Z,71.70
2022-10-29T06:54:01.153Z,71.70
2022-10-29T06:56:30.366Z,71.70
2022-10-29T06:59:00.772Z,71.80
2022-10-29T07:01:32.855Z,71.90
2022-10-29T07:04:02.067Z,72.00
2022-10-29T07:06:33.702Z,72.00
2022-10-29T07:09:02.750Z,72.10
2022-10-29T07:11:31.665Z,72.90
2022-10-29T07:14:02.166Z,72.10
2022-10-29T07:16:31.181Z,72.30
2022-10-29T07:19:00.010Z,72.30
2022-10-29T07:21:29.060Z,72.60
2022-10-29T07:23:58.235Z,73.10
2022-10-29T07:26:27.490Z,73.50
2022-10-29T07:28:58.364Z,73.80
2022-10-29T07:31:30.444Z,74.10
2022-10-29T07:33:59.327Z,74.30
2022-10-29T07:36:30.580Z,74.30
2022-10-29T07:39:00.766Z,74.30
2022-10-29T07:41:29.759Z,74.40
2022-10-29T07:43:58.899Z,74.30
2022-10-29T07:46:29.378Z,74.00
2022-10-29T07:48:59.234Z,73.50
2022-10-29T07:51:28.658Z,73.20
2022-10-29T07:53:57.598Z,72.80
2022-10-29T07:56:26.725Z,72.60
2022-10-29T07:58:55.774Z,72.10
2022-10-29T08:01:24.999Z,71.90
2022-10-29T08:03:55.361Z,71.60
2022-10-29T08:06:24.296Z,71.30
2022-10-29T08:08:53.275Z,71.30
2022-10-29T08:11:22.626Z,71.10
2022-10-29T08:13:51.692Z,70.90
2022-10-29T08:16:20.866Z,70.70
2022-10-29T08:18:50.029Z,70.80
2022-10-29T08:21:20.761Z,70.80
2022-10-29T08:23:49.972Z,70.70
2022-10-29T08:26:20.413Z,70.70
2022-10-29T08:28:49.390Z,70.60
2022-10-29T08:31:19.466Z,70.50
2022-10-29T08:33:49.204Z,70.70
2022-10-29T08:36:18.122Z,70.70
2022-10-29T08:38:49.307Z,70.70
2022-10-29T08:41:40.015Z,69.70
2022-10-29T08:44:37.971Z,69.80
2022-10-29T08:47:14.223Z,69.70
2022-10-29T08:49:46.275Z,69.30
2022-10-29T08:52:20.307Z,68.90
2022-10-29T08:55:12.250Z,68.60
2022-10-29T08:57:44.841Z,69.30
2022-10-29T09:00:18.013Z,68.60
2022-10-29T09:02:47.345Z,68.50
2022-10-29T09:05:18.016Z,68.60
2022-10-29T09:08:10.189Z,68.40
2022-10-29T09:10:44.771Z,68.30
2022-10-29T09:13:32.305Z,68.20
2022-10-29T09:16:13.674Z,67.90
2022-10-29T09:19:10.897Z,68.00
2022-10-29T09:21:46.436Z,68.10
2022-10-29T09:24:22.291Z,68.00
2022-10-29T09:26:58.961Z,68.10
2022-10-29T09:29:44.346Z,68.20
2022-10-29T09:32:16.903Z,68.30
2022-10-29T09:34:49.446Z,68.30
2022-10-29T09:37:21.647Z,68.20
2022-10-29T09:39:51.054Z,68.40
2022-10-29T09:42:27.745Z,68.30
2022-10-29T09:44:59.182Z,68.20
2022-10-29T09:47:39.475Z,68.40
2022-10-29T09:50:17.160Z,68.50
2022-10-29T09:52:48.073Z,68.60
2022-10-29T09:55:22.298Z,68.70
2022-10-29T09:57:53.548Z,68.70
2022-10-29T10:00:25.138Z,68.60
2022-10-29T10:03:01.236Z,68.60
2022-10-29T10:05:33.245Z,68.50
2022-10-29T10:08:13.608Z,68.60
2022-10-29T10:10:53.929Z,68.80
2022-10-29T10:13:27.558Z,68.60
2022-10-29T10:15:59.793Z,68.10
2022-10-29T10:18:39.753Z,68.00
2022-10-29T10:21:11.502Z,68.30
2022-10-29T10:23:43.818Z,68.50
2022-10-29T10:26:35.025Z,68.60
2022-10-29T10:29:24.456Z,67.90
2022-10-29T10:32:13.145Z,67.30
2022-10-29T10:34:42.132Z,66.80
2022-10-29T10:37:18.548Z,66.50
2022-10-29T10:39:52.713Z,66.20
2022-10-29T10:42:26.989Z,65.70
2022-10-29T10:45:01.348Z,67.10
2022-10-29T10:47:33.723Z,67.10
2022-10-29T10:50:13.329Z,65.90
2022-10-29T10:52:42.404Z,63.60
2022-10-29T10:55:22.878Z,63.60
2022-10-29T10:58:00.482Z,62.80
2022-10-29T11:00:37.283Z,61.70
2022-10-29T11:03:14.845Z,59.50
2022-10-29T11:05:49.513Z,58.30
2022-10-29T11:08:22.269Z,57.70
2022-10-29T11:10:54.593Z,56.40
2022-10-29T11:13:26.104Z,55.40
2022-10-29T11:15:59.312Z,54.30
2022-10-29T11:18:33.993Z,54.10
2022-10-29T11:21:10.787Z,53.60
2022-10-29T11:23:53.186Z,52.90
2022-10-29T11:26:28.990Z,51.60
2022-10-29T11:29:04.032Z,50.50
2022-10-29T11:31:45.233Z,49.90
2022-10-29T11:34:20.156Z,50.00
2022-10-29T11:36:56.267Z,49.90
2022-10-29T11:39:31.939Z,50.50
2022-10-29T11:42:02.422Z,50.90
2022-10-29T11:44:38.380Z,51.10
2022-10-29T11:47:22.144Z,51.30
2022-10-29T11:50:06.627Z,51.80
2022-10-29T11:52:47.074Z,52.20
2022-10-29T11:55:26.906Z,52.60
2022-10-29T11:57:59.277Z,53.30
2022-10-29T12:00:32.258Z,53.90
2022-10-29T12:03:25.982Z,54.20
2022-10-29T12:06:04.338Z,54.50
2022-10-29T12:08:49.232Z,54.80
2022-10-29T12:11:25.060Z,55.00
2022-10-29T12:14:01.829Z,55.20
2022-10-29T12:16:41.240Z,55.50
2022-10-29T12:19:24.449Z,55.70
2022-10-29T12:21:58.277Z,56.00
2022-10-29T12:24:43.892Z,56.30
2022-10-29T12:27:22.562Z,56.70
2022-10-29T12:29:58.938Z,57.00
2022-10-29T12:32:34.408Z,57.20
2022-10-29T12:35:15.471Z,57.40
2022-10-29T12:37:53.797Z,57.60
2022-10-29T12:40:25.903Z,57.60
2022-10-29T12:42:56.234Z,57.70
2022-10-29T12:45:36.950Z,57.80
2022-10-29T12:48:17.595Z,58.10
2022-10-29T12:50:57.755Z,58.20
2022-10-29T12:53:31.722Z,58.40
2022-10-29T12:56:00.865Z,58.40
2022-10-29T12:58:49.984Z,58.40
2022-10-29T13:02:09.871Z,58.30
2022-10-29T13:04:34.772Z,58.30
2022-10-29T13:07:24.075Z,58.40
2022-10-29T13:10:45.413Z,58.50
2022-10-29T13:13:27.341Z,58.50
2022-10-29T13:16:01.729Z,58.60
2022-10-29T13:18:42.249Z,58.40
2022-10-29T13:21:11.249Z,58.40
2022-10-29T13:23:40.296Z,58.50
2022-10-29T13:26:09.817Z,58.50
2022-10-29T13:28:51.932Z,58.60
2022-10-29T13:31:48.061Z,58.60
2022-10-29T13:34:53.672Z,58.60
2022-10-29T13:37:53.473Z,58.70
2022-10-29T13:40:43.117Z,58.90
2022-10-29T13:43:18.291Z,59.10
2022-10-29T13:45:52.618Z,59.30
2022-10-29T13:48:29.708Z,59.40
2022-10-29T13:51:02.143Z,59.60
2022-10-29T13:53:38.094Z,59.60
2022-10-29T13:56:12.111Z,59.70
2022-10-29T13:58:44.156Z,59.70
2022-10-29T14:01:18.745Z,59.70
2022-10-29T14:04:00.533Z,59.90
2022-10-29T14:06:34.363Z,60.00
2022-10-29T14:09:14.618Z,60.00
2022-10-29T14:11:47.848Z,60.00
2022-10-29T14:14:26.509Z,60.00
2022-10-29T14:19:50.361Z,60.10
2022-10-29T14:22:37.554Z,60.40
2022-10-29T14:25:26.957Z,60.50
2022-10-29T14:28:19.031Z,60.70
2022-10-29T14:30:50.110Z,60.70
2022-10-29T14:33:23.527Z,60.60
2022-10-29T14:35:57.303Z,60.80
2022-10-29T14:38:33.721Z,61.00
2022-10-29T14:41:02.952Z,61.00
2022-10-29T14:43:32.080Z,61.10
2022-10-29T14:46:24.492Z,61.00
2022-10-29T14:49:02.162Z,61.30
2022-10-29T14:51:38.642Z,61.30
2022-10-29T14:54:10.278Z,61.30
2022-10-29T14:56:42.139Z,61.40
2022-10-29T14:59:17.149Z,61.60
2022-10-29T15:01:49.701Z,61.60
2022-10-29T15:04:26.445Z,61.60
2022-10-29T15:07:14.462Z,61.80
2022-10-29T15:09:43.483Z,61.90
2022-10-29T15:12:21.307Z,61.90
2022-10-29T15:14:52.416Z,62.20
2022-10-29T15:17:24.533Z,62.10
2022-10-29T15:19:57.224Z,62.10
2022-10-29T15:22:33.138Z,62.20
2022-10-29T15:25:04.086Z,62.40
2022-10-29T15:27:33.345Z,62.30
2022-10-29T15:30:02.526Z,62.40
2022-10-29T15:32:31.854Z,62.70
2022-10-29T15:35:01.352Z,62.60
2022-10-29T15:37:45.908Z,62.80
2022-10-29T15:40:17.006Z,63.00
2022-10-29T15:42:46.870Z,63.00
2022-10-29T15:45:23.257Z,63.10
2022-10-29T15:47:56.487Z,63.20
2022-10-29T15:50:32.010Z,63.20
2022-10-29T15:53:05.756Z,63.40
2022-10-29T15:55:38.470Z,63.40
2022-10-29T15:58:12.293Z,63.50
2022-10-29T16:00:42.121Z,63.50
2022-10-29T16:03:16.164Z,63.50
2022-10-29T16:05:47.078Z,63.70
2022-10-29T16:08:24.800Z,63.60
2022-10-29T16:10:54.557Z,63.80
2022-10-29T16:13:24.565Z,63.80
2022-10-29T16:15:53.615Z,63.80
2022-10-29T16:18:23.028Z,64.00
2022-10-29T16:20:59.885Z,64.00
2022-10-29T16:23:30.154Z,64.20
2022-10-29T16:25:59.514Z,64.20
2022-10-29T16:28:28.826Z,64.20
2022-10-29T16:31:00.736Z,64.20
2022-10-29T16:33:29.711Z,64.50
2022-10-29T16:35:58.640Z,64.40
2022-10-29T16:38:27.850Z,64.60
2022-10-29T16:40:58.353Z,64.60
2022-10-29T16:43:27.372Z,64.80
2022-10-29T16:45:58.531Z,64.80
2022-10-29T16:48:30.091Z,64.90
2022-10-29T16:50:59.401Z,64.90
2022-10-29T16:53:28.409Z,64.90
2022-10-29T16:55:58.812Z,65.00
2022-10-29T16:58:28.863Z,65.10
2022-10-29T17:01:10.367Z,65.10
2022-10-29T17:03:40.022Z,65.40
2022-10-29T17:06:10.990Z,65.40
2022-10-29T17:08:40.359Z,65.40
2022-10-29T17:11:10.874Z,65.50
2022-10-29T17:13:39.791Z,65.70
2022-10-29T17:16:09.409Z,65.70
2022-10-29T17:18:38.465Z,65.90
2022-10-29T17:21:07.788Z,66.10
2022-10-29T17:23:36.637Z,66.10
2022-10-29T17:26:05.915Z,66.20
2022-10-29T17:28:36.623Z,66.30
2022-10-29T17:31:06.944Z,66.40
2022-10-29T17:33:36.516Z,66.50
2022-10-29T17:36:07.508Z,66.60
2022-10-29T17:38:36.653Z,66.80
2022-10-29T17:41:06.125Z,66.90
2022-10-29T17:43:36.615Z,67.00
2022-10-29T17:46:06.223Z,67.10
2022-10-29T17:48:35.392Z,67.20
2022-10-29T17:51:04.747Z,67.20
2022-10-29T17:53:33.686Z,67.30
2022-10-29T17:56:02.987Z,67.30
2022-10-29T17:58:32.004Z,67.40
2022-10-29T18:01:08.152Z,67.40
2022-10-29T18:03:38.033Z,67.60
2022-10-29T18:06:09.030Z,67.60
2022-10-29T18:08:40.219Z,67.60
2022-10-29T18:11:11.796Z,67.60
2022-10-29T18:13:42.174Z,67.80
2022-10-29T18:16:14.796Z,67.70
2022-10-29T18:19:00.624Z,67.90
2022-10-29T18:21:31.441Z,67.90
2022-10-29T18:24:00.718Z,67.90
2022-10-29T18:26:31.763Z,67.80
2022-10-29T18:29:02.047Z,68.00
2022-10-29T18:31:32.964Z,68.10
2022-10-29T18:34:05.169Z,68.10
2022-10-29T18:36:35.842Z,68.30
2022-10-29T18:39:06.427Z,68.40
2022-10-29T18:41:36.211Z,69.30
2022-10-29T18:44:05.600Z,68.60
2022-10-29T18:46:35.786Z,68.70
2022-10-29T18:49:04.642Z,68.80
2022-10-29T18:51:33.651Z,68.70
2022-10-29T18:54:02.719Z,68.80
2022-10-29T18:56:31.745Z,68.90
2022-10-29T18:59:00.781Z,68.90
2022-10-29T19:01:32.280Z,69.10
2022-10-29T19:04:04.857Z,69.00
2022-10-29T19:06:36.565Z,69.10
2022-10-29T19:09:06.817Z,69.10
2022-10-29T19:11:35.993Z,69.20
2022-10-29T19:14:06.754Z,69.20
2022-10-29T19:16:35.829Z,69.40
2022-10-29T19:19:07.924Z,69.40
2022-10-29T19:21:38.251Z,69.50
2022-10-29T19:24:08.746Z,70.30
2022-10-29T19:26:37.572Z,69.40
2022-10-29T19:29:08.225Z,69.60
2022-10-29T19:31:37.658Z,69.60
2022-10-29T19:34:09.090Z,69.50
2022-10-29T19:36:39.907Z,69.70
2022-10-29T19:39:09.394Z,69.70
2022-10-29T19:41:38.038Z,69.60
2022-10-29T19:44:07.371Z,69.50
2022-10-29T19:46:36.172Z,69.60
2022-10-29T19:49:05.053Z,69.60
2022-10-29T19:51:35.468Z,69.60
2022-10-29T19:54:07.092Z,69.60
2022-10-29T19:56:35.861Z,69.60
2022-10-29T19:59:05.355Z,69.70
2022-10-29T20:01:34.236Z,69.70
2022-10-29T20:04:03.202Z,69.90
2022-10-29T20:06:31.934Z,69.90
2022-10-29T20:09:02.191Z,69.90
2022-10-29T20:11:30.941Z,69.90
2022-10-29T20:13:59.720Z,70.00
2022-10-29T20:16:28.812Z,70.10
2022-10-29T20:18:57.602Z,70.20
2022-10-29T20:21:26.585Z,70.40
2022-10-29T20:23:56.263Z,70.50
2022-10-29T20:26:26.629Z,70.50
2022-10-29T20:28:56.959Z,70.60
2022-10-29T20:31:30.426Z,70.70
2022-10-29T20:34:02.284Z,70.80
2022-10-29T20:36:34.039Z,71.00
2022-10-29T20:39:03.115Z,71.10
2022-10-29T20:41:33.155Z,71.00
2022-10-29T20:44:02.457Z,71.10
2022-10-29T20:46:31.420Z,71.00
2022-10-29T20:49:00.710Z,71.10
2022-10-29T20:51:30.185Z,71.10
2022-10-29T20:53:59.383Z,71.10
2022-10-29T20:56:29.136Z,71.30
2022-10-29T20:58:59.500Z,71.30
2022-10-29T21:01:28.855Z,71.30
2022-10-29T21:03:57.998Z,71.30
2022-10-29T21:06:27.090Z,71.30
2022-10-29T21:08:56.269Z,71.30
2022-10-29T21:11:25.636Z,71.40
2022-10-29T21:13:54.965Z,71.30
2022-10-29T21:16:27.553Z,71.30
2022-10-29T21:19:00.384Z,71.40
2022-10-29T21:21:30.523Z,71.40
2022-10-29T21:23:59.591Z,72.10
2022-10-29T21:26:29.062Z,71.40
2022-10-29T21:28:58.347Z,71.40
2022-10-29T21:31:28.537Z,71.30
2022-10-29T21:33:57.649Z,71.30
2022-10-29T21:36:26.477Z,71.30
2022-10-29T21:38:55.703Z,71.50
2022-10-29T21:41:24.618Z,71.50
2022-10-29T21:43:53.457Z,70.90
2022-10-29T21:46:22.972Z,71.40
2022-10-29T21:48:54.183Z,71.30
2022-10-29T21:51:23.351Z,71.50
2022-10-29T21:53:52.065Z,71.30
2022-10-29T21:56:20.857Z,71.20
2022-10-29T21:58:51.757Z,71.20
2022-10-29T22:01:20.936Z,71.20
2022-10-29T22:03:50.089Z,71.20
2022-10-29T22:06:21.771Z,72.00
2022-10-29T22:08:54.870Z,71.20
2022-10-29T22:11:24.349Z,71.20
2022-10-29T22:13:53.715Z,71.20
2022-10-29T22:16:23.002Z,71.30
2022-10-29T22:18:51.960Z,71.30
2022-10-29T22:21:24.160Z,71.30
2022-10-29T22:23:54.680Z,71.30
2022-10-29T22:26:25.211Z,71.40
2022-10-29T22:28:54.764Z,71.50
2022-10-29T22:31:24.993Z,71.40
2022-10-29T22:33:53.808Z,71.50
2022-10-29T22:36:25.323Z,71.50
2022-10-29T22:38:55.214Z,71.70
2022-10-29T22:41:25.795Z,71.80
2022-10-29T22:43:55.049Z,71.90
2022-10-29T22:46:23.846Z,72.00
2022-10-29T22:48:52.729Z,72.00
2022-10-29T22:51:24.388Z,72.20
2022-10-29T22:53:54.206Z,72.30
2022-10-29T22:56:25.346Z,72.30
2022-10-29T22:58:54.874Z,72.80
2022-10-29T23:01:25.807Z,72.30
2022-10-29T23:03:55.040Z,72.40
2022-10-29T23:06:25.566Z,73.10
2022-10-29T23:08:56.029Z,72.40
2022-10-29T23:11:26.331Z,72.40
2022-10-29T23:13:57.096Z,72.50
2022-10-29T23:16:27.292Z,72.50
2022-10-29T23:18:59.434Z,73.30
2022-10-29T23:21:30.088Z,72.60
2022-10-29T23:23:59.415Z,72.70
2022-10-29T23:26:28.946Z,72.70
2022-10-29T23:28:57.938Z,72.70
2022-10-29T23:31:28.650Z,72.70
2022-10-29T23:33:58.882Z,72.80
2022-10-29T23:36:29.649Z,72.80
2022-10-29T23:38:59.644Z,72.90
2022-10-29T23:41:29.669Z,72.90
2022-10-29T23:43:58.940Z,73.00
2022-10-29T23:46:28.277Z,72.90
2022-10-29T23:48:57.218Z,72.90
2022-10-29T23:51:26.004Z,72.90
2022-10-29T23:53:57.702Z,72.90
2022-10-29T23:56:26.782Z,73.00
2022-10-29T23:58:56.030Z,72.90
